createdAt,value
2022-10-08T00:02:11.100Z,82.02
2022-10-08T00:04:41.708Z,82.30
2022-10-08T00:07:11.427Z,81.98
2022-10-08T00:09:41.549Z,82.74
2022-10-08T00:12:11.997Z,81.10
2022-10-08T00:14:42.585Z,82.28
2022-10-08T00:17:12.966Z,81.45
2022-10-08T00:19:43.275Z,81.13
2022-10-08T00:22:13.377Z,80.16
2022-10-08T00:24:43.932Z,81.17
2022-10-08T00:27:14.517Z,82.29
2022-10-08T00:29:46.163Z,82.40
2022-10-08T00:32:16.760Z,82.26
2022-10-08T00:34:48.451Z,84.10
2022-10-08T00:37:19.094Z,83.33
2022-10-08T00:39:49.563Z,83.73
2022-10-08T00:42:20.231Z,83.55
2022-10-08T00:44:57.201Z,83.18
2022-10-08T00:47:27.746Z,83.49
2022-10-08T00:50:01.242Z,84.22
2022-10-08T00:52:37.798Z,84.08
2022-10-08T00:55:08.657Z,83.71
2022-10-08T00:57:40.673Z,84.71
2022-10-08T01:00:16.359Z,83.74
2022-10-08T01:02:47.717Z,83.76
2022-10-08T01:05:24.611Z,83.29
2022-10-08T01:08:01.751Z,83.54
2022-10-08T01:10:43.954Z,82.20
2022-10-08T01:13:34.356Z,84.05
2022-10-08T01:16:09.252Z,83.61
2022-10-08T01:18:39.706Z,84.63
2022-10-08T01:21:37.021Z,85.15
2022-10-08T01:24:57.910Z,83.75
2022-10-08T01:27:48.550Z,83.88
2022-10-08T01:30:21.038Z,83.72
2022-10-08T01:33:13.719Z,84.01
2022-10-08T01:35:52.870Z,83.75
2022-10-08T01:38:26.515Z,83.90
2022-10-08T01:41:01.845Z,83.68
2022-10-08T01:43:46.736Z,85.07
2022-10-08T01:46:31.497Z,84.29
2022-10-08T01:49:09.476Z,84.62
2022-10-08T01:51:55.666Z,84.37
2022-10-08T01:54:30.296Z,85.82
2022-10-08T01:57:04.293Z,85.89
2022-10-08T01:59:52.834Z,86.56
2022-10-08T02:02:27.896Z,86.52
2022-10-08T02:04:58.677Z,85.99
2022-10-08T02:07:44.323Z,85.94
2022-10-08T02:10:23.224Z,85.76
2022-10-08T02:12:53.763Z,86.24
2022-10-08T02:15:37.261Z,85.90
2022-10-08T02:18:09.326Z,85.46
2022-10-08T02:20:46.189Z,87.67
2022-10-08T02:23:44.919Z,86.99
2022-10-08T02:26:23.586Z,86.82
2022-10-08T02:29:00.443Z,86.98
2022-10-08T02:31:57.866Z,87.03
2022-10-08T02:34:39.284Z,86.45
2022-10-08T02:37:37.309Z,86.86
2022-10-08T02:40:13.177Z,86.63
2022-10-08T02:42:48.409Z,87.01
2022-10-08T02:45:26.414Z,87.70
2022-10-08T02:48:02.544Z,86.45
2022-10-08T02:50:34.905Z,87.65
2022-10-08T02:53:05.975Z,87.93
2022-10-08T02:55:48.612Z,87.60
2022-10-08T02:58:19.671Z,87.12
2022-10-08T03:00:54.497Z,87.49
2022-10-08T03:03:49.934Z,88.14
2022-10-08T03:06:20.668Z,88.11
2022-10-08T03:08:51.808Z,87.81
2022-10-08T03:11:22.633Z,87.77
2022-10-08T03:13:58.912Z,88.22
2022-10-08T03:16:39.382Z,87.13
2022-10-08T03:19:12.114Z,87.89
2022-10-08T03:21:45.649Z,88.36
2022-10-08T03:24:17.024Z,88.84
2022-10-08T03:26:47.598Z,88.57
2022-10-08T03:29:18.166Z,88.64
2022-10-08T03:31:52.441Z,89.22
2022-10-08T03:34:24.345Z,89.23
2022-10-08T03:36:54.733Z,88.33
2022-10-08T03:39:25.285Z,88.78
2022-10-08T03:41:55.763Z,88.72
2022-10-08T03:44:25.569Z,87.95
2022-10-08T03:46:55.819Z,88.40
2022-10-08T03:49:26.710Z,88.61
2022-10-08T03:51:57.102Z,88.63
2022-10-08T03:54:27.568Z,90.33
2022-10-08T03:56:57.516Z,89.27
2022-10-08T03:59:27.719Z,89.93
2022-10-08T04:01:58.032Z,89.20
2022-10-08T04:04:28.291Z,89.12
2022-10-08T04:06:59.000Z,88.30
2022-10-08T04:09:29.501Z,88.89
2022-10-08T04:11:59.857Z,90.35
2022-10-08T04:14:30.323Z,90.58
2022-10-08T04:17:00.428Z,89.85
2022-10-08T04:19:30.814Z,90.45
2022-10-08T04:22:00.711Z,89.34
2022-10-08T04:24:30.819Z,90.13
2022-10-08T04:27:00.861Z,89.66
2022-10-08T04:29:31.224Z,90.22
2022-10-08T04:32:01.307Z,89.51
2022-10-08T04:34:31.570Z,90.91
2022-10-08T04:53:07.666Z,91.96
2022-10-08T04:55:38.017Z,92.41
2022-10-08T04:58:08.350Z,91.71
2022-10-08T05:00:38.705Z,91.22
2022-10-08T05:03:09.641Z,92.67
2022-10-08T05:05:44.201Z,91.41
2022-10-08T05:08:15.447Z,92.14
2022-10-08T05:10:54.346Z,92.97
2022-10-08T05:13:24.989Z,92.29
2022-10-08T05:15:55.752Z,92.81
2022-10-08T05:18:26.286Z,92.68
2022-10-08T05:20:56.630Z,92.29
2022-10-08T05:23:27.367Z,92.89
2022-10-08T05:25:57.828Z,93.08
2022-10-08T05:28:28.101Z,92.39
2022-10-08T05:31:01.719Z,92.72
2022-10-08T05:33:32.010Z,93.45
2022-10-08T05:36:08.396Z,92.47
2022-10-08T05:38:39.064Z,93.27
2022-10-08T05:41:15.389Z,93.10
2022-10-08T05:43:46.594Z,92.19
2022-10-08T05:46:18.165Z,92.98
2022-10-08T05:48:49.053Z,92.59
2022-10-08T05:51:19.875Z,93.59
2022-10-08T05:53:52.975Z,92.72
2022-10-08T05:56:25.385Z,92.93
2022-10-08T05:58:56.540Z,93.32
2022-10-08T06:01:32.826Z,93.17
2022-10-08T06:04:09.078Z,93.69
2022-10-08T06:06:42.017Z,93.73
2022-10-08T06:09:17.966Z,92.83
2022-10-08T06:11:49.007Z,92.91
2022-10-08T06:14:21.580Z,92.42
2022-10-08T06:16:51.990Z,93.15
2022-10-08T06:19:22.500Z,93.09
2022-10-08T06:21:52.378Z,92.11
2022-10-08T06:24:23.039Z,91.63
2022-10-08T06:26:53.647Z,92.80
2022-10-08T06:29:24.024Z,91.94
2022-10-08T06:31:54.827Z,92.34
2022-10-08T06:34:25.902Z,92.30
2022-10-08T06:36:56.296Z,92.39
2022-10-08T06:39:26.624Z,92.03
2022-10-08T06:41:56.845Z,92.12
2022-10-08T06:44:27.252Z,93.38
2022-10-08T06:46:57.102Z,92.09
2022-10-08T06:49:28.214Z,92.24
2022-10-08T06:51:58.668Z,92.63
2022-10-08T06:54:29.202Z,92.56
2022-10-08T06:57:00.011Z,92.16
2022-10-08T06:59:32.612Z,91.50
2022-10-08T07:02:02.923Z,92.14
2022-10-08T07:04:33.793Z,91.95
2022-10-08T07:07:04.160Z,92.11
2022-10-08T07:09:34.532Z,92.53
2022-10-08T07:12:04.685Z,91.81
2022-10-08T07:14:35.102Z,92.45
2022-10-08T07:17:05.621Z,92.44
2022-10-08T07:19:36.061Z,92.64
2022-10-08T07:22:06.399Z,92.25
2022-10-08T07:24:36.773Z,93.13
2022-10-08T07:27:07.192Z,92.24
2022-10-08T07:29:37.877Z,93.28
2022-10-08T07:32:08.244Z,92.64
2022-10-08T07:34:38.969Z,93.97
2022-10-08T07:37:09.322Z,93.55
2022-10-08T07:39:39.920Z,94.34
2022-10-08T07:42:10.200Z,94.27
2022-10-08T07:44:40.658Z,93.37
2022-10-08T07:47:11.363Z,94.11
2022-10-08T07:49:41.830Z,93.36
2022-10-08T07:52:11.996Z,92.95
2022-10-08T07:54:43.953Z,93.64
2022-10-08T07:57:14.425Z,93.35
2022-10-08T07:59:44.832Z,93.38
2022-10-08T08:02:15.230Z,94.10
2022-10-08T08:04:46.049Z,94.35
2022-10-08T08:07:16.374Z,93.76
2022-10-08T08:09:46.857Z,93.23
2022-10-08T08:12:17.159Z,93.83
2022-10-08T08:14:47.507Z,94.92
2022-10-08T08:17:17.811Z,94.41
2022-10-08T08:19:48.164Z,93.25
2022-10-08T08:22:18.489Z,93.46
2022-10-08T08:24:48.944Z,92.97
2022-10-08T08:27:20.118Z,94.14
2022-10-08T08:29:51.546Z,94.47
2022-10-08T08:32:27.568Z,94.14
2022-10-08T08:34:58.886Z,93.37
2022-10-08T08:37:29.235Z,94.37
2022-10-08T08:39:59.786Z,93.78
2022-10-08T08:42:39.156Z,93.62
2022-10-08T08:45:45.383Z,94.90
2022-10-08T08:48:24.518Z,94.50
2022-10-08T08:51:00.160Z,94.54
2022-10-08T08:53:30.574Z,94.69
2022-10-08T08:56:04.514Z,94.08
2022-10-08T08:58:46.433Z,95.03
2022-10-08T09:01:32.400Z,94.73
2022-10-08T09:04:13.213Z,93.90
2022-10-08T09:06:45.155Z,93.74
2022-10-08T09:09:34.137Z,94.42
2022-10-08T09:12:28.889Z,94.23
2022-10-08T09:15:02.901Z,94.38
2022-10-08T09:17:40.504Z,94.19
2022-10-08T09:20:16.714Z,94.40
2022-10-08T09:22:47.893Z,94.51
2022-10-08T09:25:22.132Z,94.06
2022-10-08T09:27:55.115Z,94.10
2022-10-08T09:30:42.965Z,95.18
2022-10-08T09:33:19.991Z,94.52
2022-10-08T09:35:53.239Z,95.08
2022-10-08T09:38:27.989Z,94.78
2022-10-08T09:41:34.373Z,94.90
2022-10-08T09:44:24.816Z,94.44
2022-10-08T09:47:07.612Z,94.14
2022-10-08T09:49:41.849Z,93.93
2022-10-08T09:52:22.565Z,93.99
2022-10-08T09:55:12.738Z,93.87
2022-10-08T09:57:50.028Z,93.25
2022-10-08T10:00:40.701Z,92.91
2022-10-08T10:03:19.248Z,93.21
2022-10-08T10:05:54.264Z,92.97
2022-10-08T10:09:22.890Z,93.37
2022-10-08T10:12:06.630Z,92.80
2022-10-08T10:14:53.288Z,92.86
2022-10-08T10:17:32.673Z,90.79
2022-10-08T10:20:15.032Z,91.30
2022-10-08T10:23:21.864Z,91.07
2022-10-08T10:25:52.174Z,91.08
2022-10-08T10:28:36.361Z,90.77
2022-10-08T10:31:15.586Z,90.06
2022-10-08T10:34:15.430Z,89.34
2022-10-08T10:36:55.775Z,89.33
2022-10-08T10:39:39.846Z,88.18
2022-10-08T10:42:23.516Z,87.20
2022-10-08T10:44:59.126Z,87.67
2022-10-08T10:47:33.917Z,87.87
2022-10-08T10:50:04.949Z,86.43
2022-10-08T10:52:38.057Z,84.91
2022-10-08T10:55:26.915Z,85.21
2022-10-08T10:58:00.526Z,85.44
2022-10-08T11:00:49.284Z,84.86
2022-10-08T11:03:38.066Z,83.16
2022-10-08T11:06:44.668Z,84.28
2022-10-08T11:09:27.172Z,82.08
2022-10-08T11:12:01.971Z,83.33
2022-10-08T11:14:50.697Z,83.01
2022-10-08T11:17:47.308Z,82.30
2022-10-08T11:20:39.490Z,83.01
2022-10-08T11:23:17.928Z,82.76
2022-10-08T11:26:16.502Z,82.31
2022-10-08T11:28:52.944Z,82.02
2022-10-08T11:31:32.616Z,81.77
2022-10-08T11:34:05.267Z,81.77
2022-10-08T11:36:54.540Z,81.25
2022-10-08T11:39:38.047Z,80.75
2022-10-08T11:42:29.512Z,80.32
2022-10-08T11:45:25.614Z,79.15
2022-10-08T11:47:58.862Z,79.11
2022-10-08T11:50:38.205Z,79.59
2022-10-08T11:53:24.056Z,78.43
2022-10-08T11:56:00.737Z,78.34
2022-10-08T11:58:32.244Z,77.96
2022-10-08T12:01:10.794Z,78.16
2022-10-08T12:03:44.679Z,74.76
2022-10-08T12:06:25.432Z,72.65
2022-10-08T12:09:01.460Z,71.74
2022-10-08T12:11:36.644Z,73.42
2022-10-08T12:14:15.968Z,71.45
2022-10-08T12:16:58.817Z,69.07
2022-10-08T12:19:37.463Z,69.84
2022-10-08T12:22:18.131Z,67.83
2022-10-08T12:24:50.579Z,68.11
2022-10-08T12:27:24.034Z,66.76
2022-10-08T12:30:14.991Z,66.28
2022-10-08T12:32:45.647Z,65.21
2022-10-08T12:35:30.191Z,66.21
2022-10-08T12:38:21.705Z,66.44
2022-10-08T12:41:26.891Z,65.11
2022-10-08T12:44:30.767Z,63.94
2022-10-08T12:47:30.908Z,61.67
2022-10-08T12:50:24.347Z,64.46
2022-10-08T12:52:55.581Z,65.52
2022-10-08T12:55:26.418Z,62.07
2022-10-08T12:57:57.038Z,63.02
2022-10-08T13:00:34.718Z,60.58
2022-10-08T13:03:17.702Z,60.54
2022-10-08T13:05:51.625Z,59.29
2022-10-08T13:08:39.192Z,60.30
2022-10-08T13:11:17.538Z,59.98
2022-10-08T13:13:52.716Z,60.00
2022-10-08T13:16:29.842Z,58.26
2022-10-08T13:19:00.508Z,58.42
2022-10-08T13:21:33.868Z,56.43
2022-10-08T13:24:26.594Z,59.12
2022-10-08T13:26:58.166Z,57.98
2022-10-08T13:29:36.560Z,57.56
2022-10-08T13:32:15.927Z,57.59
2022-10-08T13:34:58.814Z,56.99
2022-10-08T13:37:32.273Z,55.74
2022-10-08T13:40:13.232Z,54.40
2022-10-08T13:43:03.869Z,55.08
2022-10-08T13:45:40.579Z,53.29
2022-10-08T13:48:15.547Z,54.23
2022-10-08T13:50:53.149Z,54.73
2022-10-08T13:53:26.382Z,53.95
2022-10-08T13:55:56.746Z,55.72
2022-10-08T13:58:27.344Z,56.06
2022-10-08T14:00:57.857Z,53.65
2022-10-08T14:03:28.307Z,54.72
2022-10-08T14:05:59.445Z,54.13
2022-10-08T14:08:32.728Z,53.31
2022-10-08T14:11:03.178Z,52.96
2022-10-08T14:13:33.598Z,52.81
2022-10-08T14:16:04.024Z,53.02
2022-10-08T14:18:34.456Z,54.43
2022-10-08T14:21:05.498Z,54.97
2022-10-08T14:23:35.957Z,54.74
2022-10-08T14:26:06.405Z,54.05
2022-10-08T14:28:37.330Z,51.85
2022-10-08T14:31:08.731Z,53.89
2022-10-08T14:33:39.199Z,52.95
2022-10-08T14:36:18.666Z,53.86
2022-10-08T14:38:49.680Z,52.76
2022-10-08T14:41:20.076Z,52.34
2022-10-08T14:43:50.671Z,53.02
2022-10-08T14:46:21.022Z,52.36
2022-10-08T14:48:51.405Z,53.33
2022-10-08T14:51:22.044Z,51.48
2022-10-08T14:53:54.593Z,52.25
2022-10-08T14:56:24.898Z,52.64
2022-10-08T14:58:55.320Z,53.58
2022-10-08T15:01:25.738Z,49.61
2022-10-08T15:03:56.327Z,50.68
2022-10-08T15:06:26.869Z,48.28
2022-10-08T15:08:57.207Z,50.28
2022-10-08T15:11:27.702Z,50.36
2022-10-08T15:13:58.466Z,49.02
2022-10-08T15:16:28.908Z,50.54
2022-10-08T15:18:59.456Z,50.37
2022-10-08T15:21:29.776Z,47.27
2022-10-08T15:24:00.201Z,47.78
2022-10-08T15:26:30.724Z,47.44
2022-10-08T15:29:02.372Z,47.34
2022-10-08T15:31:33.050Z,46.60
2022-10-08T15:34:03.539Z,50.74
2022-10-08T15:36:40.057Z,48.93
2022-10-08T15:39:14.710Z,47.75
2022-10-08T15:41:47.920Z,46.20
2022-10-08T15:44:25.981Z,46.87
2022-10-08T15:47:05.698Z,46.63
2022-10-08T15:49:39.550Z,47.21
2022-10-08T15:52:13.857Z,46.47
2022-10-08T15:54:44.940Z,46.50
2022-10-08T15:57:17.360Z,47.85
2022-10-08T15:59:48.045Z,47.46
2022-10-08T16:02:18.781Z,45.03
2022-10-08T16:04:49.764Z,45.04
2022-10-08T16:07:20.235Z,46.03
2022-10-08T16:09:51.236Z,45.81
2022-10-08T16:12:21.630Z,44.31
2022-10-08T16:14:52.134Z,47.45
2022-10-08T16:17:27.738Z,44.31
2022-10-08T16:19:58.046Z,45.17
2022-10-08T16:22:28.426Z,50.00
2022-10-08T16:24:58.821Z,44.51
2022-10-08T16:27:29.223Z,45.87
2022-10-08T16:30:00.064Z,49.66
2022-10-08T16:32:30.516Z,44.66
2022-10-08T16:35:00.951Z,46.78
2022-10-08T16:37:31.348Z,44.28
2022-10-08T16:40:05.226Z,44.00
2022-10-08T16:42:35.624Z,46.19
2022-10-08T16:45:06.315Z,43.65
2022-10-08T16:47:36.797Z,43.73
2022-10-08T16:50:07.819Z,46.60
2022-10-08T16:52:38.625Z,48.11
2022-10-08T16:55:09.248Z,44.89
2022-10-08T16:57:39.615Z,44.09
2022-10-08T17:00:10.421Z,46.57
2022-10-08T17:02:40.929Z,44.88
2022-10-08T17:05:11.309Z,43.92
2022-10-08T17:07:41.788Z,45.52
2022-10-08T17:10:14.185Z,47.03
2022-10-08T17:12:44.925Z,48.00
2022-10-08T17:15:15.510Z,47.78
2022-10-08T17:17:45.977Z,44.93
2022-10-08T17:20:16.387Z,49.13
2022-10-08T17:22:46.931Z,47.38
2022-10-08T17:25:17.747Z,47.12
2022-10-08T17:27:48.418Z,46.01
2022-10-08T17:30:19.574Z,47.81
2022-10-08T17:32:50.276Z,45.39
2022-10-08T17:35:20.857Z,46.15
2022-10-08T17:37:51.310Z,44.56
2022-10-08T17:40:21.673Z,44.71
2022-10-08T17:42:52.017Z,44.80
2022-10-08T17:45:23.590Z,46.45
2022-10-08T17:47:54.036Z,44.38
2022-10-08T17:50:24.652Z,44.35
2022-10-08T17:52:56.416Z,47.35
2022-10-08T17:55:27.398Z,43.98
2022-10-08T17:57:57.594Z,44.06
2022-10-08T18:00:28.922Z,45.55
2022-10-08T18:02:59.362Z,42.14
2022-10-08T18:05:30.303Z,44.26
2022-10-08T18:08:01.176Z,44.20
2022-10-08T18:10:31.841Z,40.90
2022-10-08T18:13:03.425Z,46.08
2022-10-08T18:15:38.009Z,43.16
2022-10-08T18:18:09.437Z,45.63
2022-10-08T18:20:40.884Z,45.44
2022-10-08T18:23:13.418Z,46.36
2022-10-08T18:25:43.990Z,46.11
2022-10-08T18:28:14.668Z,45.28
2022-10-08T18:30:45.582Z,46.42
2022-10-08T18:33:17.168Z,45.77
2022-10-08T18:35:47.853Z,44.03
2022-10-08T18:38:18.239Z,44.48
2022-10-08T18:40:48.655Z,45.36
2022-10-08T18:43:18.944Z,45.31
2022-10-08T18:45:49.502Z,45.26
2022-10-08T18:48:19.760Z,45.96
2022-10-08T18:50:50.095Z,48.02
2022-10-08T18:53:20.578Z,46.76
2022-10-08T18:55:51.608Z,46.80
2022-10-08T18:58:21.949Z,45.58
2022-10-08T19:00:52.495Z,44.06
2022-10-08T19:03:23.619Z,43.31
2022-10-08T19:05:54.788Z,43.67
2022-10-08T19:08:25.088Z,44.13
2022-10-08T19:10:55.672Z,45.44
2022-10-08T19:13:26.069Z,45.21
2022-10-08T19:15:56.788Z,47.35
2022-10-08T19:18:27.043Z,44.85
2022-10-08T19:20:57.613Z,46.47
2022-10-08T19:23:27.929Z,48.11
2022-10-08T19:25:58.349Z,49.02
2022-10-08T19:28:28.618Z,49.66
2022-10-08T19:30:59.513Z,46.80
2022-10-08T19:33:30.040Z,47.39
2022-10-08T19:36:02.782Z,47.52
2022-10-08T19:38:33.700Z,49.24
2022-10-08T19:41:08.871Z,48.65
2022-10-08T19:43:39.435Z,48.02
2022-10-08T19:46:10.108Z,48.20
2022-10-08T19:48:40.639Z,47.67
2022-10-08T19:51:13.462Z,46.84
2022-10-08T19:53:43.915Z,47.00
2022-10-08T19:56:15.865Z,47.57
2022-10-08T19:58:48.852Z,48.84
2022-10-08T20:01:22.917Z,47.18
2022-10-08T20:04:01.381Z,47.69
2022-10-08T20:06:34.099Z,47.19
2022-10-08T20:09:05.801Z,47.64
2022-10-08T20:11:36.328Z,47.27
2022-10-08T20:14:07.137Z,42.39
2022-10-08T20:16:43.119Z,38.29
2022-10-08T20:19:22.135Z,43.21
2022-10-08T20:21:53.329Z,45.19
2022-10-08T20:24:23.886Z,44.30
2022-10-08T20:26:54.976Z,44.83
2022-10-08T20:29:30.693Z,45.74
2022-10-08T20:32:02.495Z,49.58
2022-10-08T20:34:33.210Z,46.88
2022-10-08T20:37:03.869Z,47.65
2022-10-08T20:39:34.738Z,50.64
2022-10-08T20:42:05.452Z,49.97
2022-10-08T20:44:36.121Z,49.24
2022-10-08T20:47:06.973Z,52.13
2022-10-08T20:49:37.506Z,51.98
2022-10-08T20:52:08.275Z,52.36
2022-10-08T20:54:38.719Z,53.81
2022-10-08T20:57:09.411Z,52.03
2022-10-08T20:59:39.746Z,54.61
2022-10-08T21:02:12.220Z,52.85
2022-10-08T21:04:43.377Z,51.62
2022-10-08T21:07:13.703Z,53.96
2022-10-08T21:09:46.133Z,54.32
2022-10-08T21:12:16.850Z,56.44
2022-10-08T21:14:47.262Z,56.92
2022-10-08T21:17:17.839Z,56.88
2022-10-08T21:19:48.208Z,58.54
2022-10-08T21:22:18.777Z,59.00
2022-10-08T21:24:48.982Z,59.04
2022-10-08T21:27:19.461Z,59.51
2022-10-08T21:29:50.009Z,60.10
2022-10-08T21:32:20.921Z,61.43
2022-10-08T21:34:51.431Z,60.26
2022-10-08T21:37:22.093Z,63.50
2022-10-08T21:39:53.666Z,62.66
2022-10-08T21:42:24.243Z,65.30
2022-10-08T21:44:54.645Z,66.42
2022-10-08T21:47:25.097Z,64.17
2022-10-08T21:49:55.496Z,66.23
2022-10-08T21:52:26.187Z,64.14
2022-10-08T21:54:56.622Z,63.43
2022-10-08T21:57:27.100Z,64.42
2022-10-08T21:59:57.475Z,63.89
2022-10-08T22:02:27.883Z,65.01
2022-10-08T22:04:58.473Z,63.31
2022-10-08T22:07:28.867Z,65.83
2022-10-08T22:09:59.200Z,66.98
2022-10-08T22:12:29.655Z,66.37
2022-10-08T22:15:00.104Z,68.29
2022-10-08T22:17:30.681Z,66.29
2022-10-08T22:20:01.141Z,70.40
2022-10-08T22:22:31.847Z,66.51
2022-10-08T22:25:02.287Z,67.14
2022-10-08T22:27:32.734Z,67.86
2022-10-08T22:30:03.207Z,69.88
2022-10-08T22:32:34.344Z,69.38
2022-10-08T22:35:04.698Z,69.79
2022-10-08T22:37:35.200Z,70.33
2022-10-08T22:40:05.805Z,70.55
2022-10-08T22:42:36.123Z,72.21
2022-10-08T22:45:06.868Z,72.97
2022-10-08T22:47:37.912Z,74.79
2022-10-08T22:50:10.014Z,73.26
2022-10-08T22:52:40.531Z,73.78
2022-10-08T22:55:11.103Z,70.66
2022-10-08T22:57:42.409Z,72.29
2022-10-08T23:00:13.608Z,72.19
2022-10-08T23:02:43.943Z,73.46
2022-10-08T23:05:14.451Z,71.95
2022-10-08T23:07:44.955Z,73.28
2022-10-08T23:10:15.570Z,71.04
2022-10-08T23:12:46.226Z,72.80
2022-10-08T23:15:16.893Z,71.77
2022-10-08T23:17:47.372Z,72.19
2022-10-08T23:20:17.791Z,71.57
2022-10-08T23:22:48.517Z,73.07
2022-10-08T23:25:19.139Z,71.20
2022-10-08T23:27:49.751Z,70.28
2022-10-08T23:30:41.511Z,71.26
2022-10-08T23:33:11.334Z,71.57
2022-10-08T23:35:41.783Z,71.05
2022-10-08T23:38:12.451Z,72.00
2022-10-08T23:40:42.989Z,71.23
2022-10-08T23:43:13.481Z,74.76
2022-10-08T23:45:43.992Z,74.42
2022-10-08T23:48:14.555Z,73.84
2022-10-08T23:51:03.056Z,75.44
2022-10-08T23:53:34.162Z,73.89
2022-10-08T23:56:04.959Z,75.55
2022-10-08T23:58:35.638Z,76.77
